地図

経路データ

SID SEASON NUMBER BASIN SUBBASIN NAME ISO_TIME NATURE LAT LON WMO_WIND WMO_PRES WMO_AGENCY TRACK_TYPE DIST2LAND LANDFALL IFLAG USA_AGENCY USA_ATCF_ID USA_LAT USA_LON USA_RECORD USA_STATUS USA_WIND USA_PRES USA_SSHS USA_R34_NE USA_R34_SE USA_R34_SW USA_R34_NW USA_R50_NE USA_R50_SE USA_R50_SW USA_R50_NW USA_R64_NE USA_R64_SE USA_R64_SW USA_R64_NW USA_POCI USA_ROCI USA_RMW USA_EYE TOKYO_LAT TOKYO_LON TOKYO_GRADE TOKYO_WIND TOKYO_PRES TOKYO_R50_DIR TOKYO_R50_LONG TOKYO_R50_SHORT TOKYO_R30_DIR TOKYO_R30_LONG TOKYO_R30_SHORT TOKYO_LAND CMA_LAT CMA_LON CMA_CAT CMA_WIND CMA_PRES HKO_LAT HKO_LON HKO_CAT HKO_WIND HKO_PRES NEWDELHI_LAT NEWDELHI_LON NEWDELHI_GRADE NEWDELHI_WIND NEWDELHI_PRES NEWDELHI_CI NEWDELHI_DP NEWDELHI_POCI REUNION_LAT REUNION_LON REUNION_TYPE REUNION_WIND REUNION_PRES REUNION_TNUM REUNION_CI REUNION_RMW REUNION_R34_NE REUNION_R34_SE REUNION_R34_SW REUNION_R34_NW REUNION_R50_NE REUNION_R50_SE REUNION_R50_SW REUNION_R50_NW REUNION_R64_NE REUNION_R64_SE REUNION_R64_SW REUNION_R64_NW BOM_LAT BOM_LON BOM_TYPE BOM_WIND BOM_PRES BOM_TNUM BOM_CI BOM_RMW BOM_R34_NE BOM_R34_SE BOM_R34_SW BOM_R34_NW BOM_R50_NE BOM_R50_SE BOM_R50_SW BOM_R50_NW BOM_R64_NE BOM_R64_SE BOM_R64_SW BOM_R64_NW BOM_ROCI BOM_POCI BOM_EYE BOM_POS_METHOD BOM_PRES_METHOD NADI_LAT NADI_LON NADI_CAT NADI_WIND NADI_PRES WELLINGTON_LAT WELLINGTON_LON WELLINGTON_WIND WELLINGTON_PRES DS824_LAT DS824_LON DS824_STAGE DS824_WIND DS824_PRES TD9636_LAT TD9636_LON TD9636_STAGE TD9636_WIND TD9636_PRES TD9635_LAT TD9635_LON TD9635_WIND TD9635_PRES TD9635_ROCI NEUMANN_LAT NEUMANN_LON NEUMANN_CLASS NEUMANN_WIND NEUMANN_PRES MLC_LAT MLC_LON MLC_CLASS MLC_WIND MLC_PRES USA_GUST BOM_GUST BOM_GUST_PER REUNION_GUST REUNION_GUST_PER USA_SEAHGT USA_SEARAD_NE USA_SEARAD_SE USA_SEARAD_SW USA_SEARAD_NW STORM_SPEED STORM_DIR
1915276N17146 1915 39 WP MM NOT_NAMED 1915-10-03 09:00:00 NR 17.1000 145.600 main 2066 2014 __________O___ -1 17.1000 145.600 7 14 290
1915276N17146 1915 39 WP MM NOT_NAMED 1915-10-03 12:00:00 NR 17.3417 144.900 main 2014 1958 __________P___ -1 17.3417 144.900 7 14 290
1915276N17146 1915 39 WP MM NOT_NAMED 1915-10-03 15:00:00 NR 17.5755 144.230 main 1953 1912 __________P___ -1 17.5755 144.230 7 13 290
1915276N17146 1915 39 WP MM NOT_NAMED 1915-10-03 18:00:00 NR 17.7965 143.619 main 1908 1867 __________P___ -1 17.7965 143.619 7 12 292
1915276N17146 1915 39 WP MM NOT_NAMED 1915-10-03 21:00:00 NR 18.0000 143.100 main 1867 1831 __________O___ -1 18.0000 143.100 7 10 294
1915276N17146 1915 39 WP MM NOT_NAMED 1915-10-04 00:00:00 NR 18.1839 142.690 main 1831 1809 __________P___ -1 18.1839 142.690 7 8 297
1915276N17146 1915 39 WP MM NOT_NAMED 1915-10-04 03:00:00 NR 18.3556 142.354 main 1799 1778 __________P___ -1 18.3556 142.354 7 7 299
1915276N17146 1915 39 WP MM NOT_NAMED 1915-10-04 06:00:00 NR 18.5247 142.040 main 1774 1743 __________P___ -1 18.5247 142.040 7 7 299
1915276N17146 1915 39 WP MM NOT_NAMED 1915-10-04 09:00:00 NR 18.7000 141.700 main 1743 1709 __________O___ -1 18.7000 141.700 4 8 296
1915276N17146 1915 39 WP MM NOT_NAMED 1915-10-04 12:00:00 NR 18.8803 141.281 main 1709 1671 __________P___ -1 18.8803 141.281 4 9 294
1915276N17146 1915 39 WP MM NOT_NAMED 1915-10-04 15:00:00 NR 19.0694 140.824 main 1665 1624 __________P___ -1 19.0694 140.824 4 10 294
1915276N17146 1915 39 WP MM NOT_NAMED 1915-10-04 18:00:00 NR 19.2738 140.330 main 1618 1572 __________P___ -1 19.2738 140.330 4 11 294
1915276N17146 1915 39 WP MM NOT_NAMED 1915-10-04 21:00:00 NR 19.5000 139.800 main 1572 1526 __________O___ -1 19.5000 139.800 4 11 294
1915276N17146 1915 39 WP MM NOT_NAMED 1915-10-05 00:00:00 NR 19.7372 139.235 main 1521 1466 __________P___ -1 19.7372 139.235 4 12 294
1915276N17146 1915 39 WP MM NOT_NAMED 1915-10-05 03:00:00 NR 19.9974 138.637 main 1460 1405 __________P___ -1 19.9974 138.637 4 13 296
1915276N17146 1915 39 WP MM NOT_NAMED 1915-10-05 06:00:00 NR 20.2839 138.020 main 1400 1340 __________P___ -1 20.2839 138.020 4 13 297
1915276N17146 1915 39 WP MM NOT_NAMED 1915-10-05 09:00:00 NR 20.6000 137.400 main 1340 1281 __________O___ -1 20.6000 137.400 4 13 298
1915276N17146 1915 39 WP MM NOT_NAMED 1915-10-05 12:00:00 NR 20.9016 136.775 main 1281 1223 __________P___ -1 20.9016 136.775 4 13 299
1915276N17146 1915 39 WP MM NOT_NAMED 1915-10-05 15:00:00 NR 21.2376 136.153 main 1223 1157 __________P___ -1 21.2376 136.153 4 14 303
1915276N17146 1915 39 WP MM NOT_NAMED 1915-10-05 18:00:00 NR 21.6298 135.556 main 1157 1081 __________P___ -1 21.6298 135.556 4 14 309
1915276N17146 1915 39 WP MM NOT_NAMED 1915-10-05 21:00:00 NR 22.1000 135.000 main 1081 1010 __________O___ -1 22.1000 135.000 4 14 315
1915276N17146 1915 39 WP MM NOT_NAMED 1915-10-06 00:00:00 NR 22.6423 134.459 main 1010 930 __________P___ -1 22.6423 134.459 4 15 321
1915276N17146 1915 39 WP MM NOT_NAMED 1915-10-06 03:00:00 NR 23.2650 133.966 main 919 842 __________P___ -1 23.2650 133.966 4 16 327
1915276N17146 1915 39 WP MM NOT_NAMED 1915-10-06 06:00:00 NR 23.9551 133.540 main 828 744 __________P___ -1 23.9551 133.540 4 16 334
1915276N17146 1915 39 WP MM NOT_NAMED 1915-10-06 09:00:00 NR 24.7000 133.200 main 744 671 __________O___ -1 24.7000 133.200 4 15 338
1915276N17146 1915 39 WP MM NOT_NAMED 1915-10-06 12:00:00 NR 25.3893 132.919 main 661 580 __________P___ -1 25.3893 132.919 4 15 344
1915276N17146 1915 39 WP MM NOT_NAMED 1915-10-06 15:00:00 NR 26.1401 132.729 main 580 493 __________P___ -1 26.1401 132.729 4 16 351
1915276N17146 1915 39 WP MM NOT_NAMED 1915-10-06 18:00:00 NR 26.9958 132.624 main 483 391 __________P___ -1 26.9958 132.624 4 19 357
1915276N17146 1915 39 WP MM NOT_NAMED 1915-10-06 21:00:00 NR 28.0000 132.600 main 381 265 __________O___ -1 28.0000 132.600 4 23 358
1915276N17146 1915 39 WP MM NOT_NAMED 1915-10-07 00:00:00 NR 29.2502 132.543 main 256 144 __________P___ -1 29.2502 132.543 4 26 360
1915276N17146 1915 39 WP MM NOT_NAMED 1915-10-07 03:00:00 NR 30.6373 132.576 main 144 82 __________P___ -1 30.6373 132.576 4 28 3
1915276N17146 1915 39 WP MM NOT_NAMED 1915-10-07 06:00:00 NR 32.0558 132.745 main 72 0 __________P___ -1 32.0558 132.745 4 28 9
1915276N17146 1915 39 WP MM NOT_NAMED 1915-10-07 09:00:00 NR 33.4000 133.100 main 0 0 __________O___ -1 33.4000 133.100 4 26 16
1915276N17146 1915 39 WP MM NOT_NAMED 1915-10-07 12:00:00 NR 34.5562 133.617 main 0 0 __________P___ -1 34.5562 133.617 4 24 25
1915276N17146 1915 39 WP MM NOT_NAMED 1915-10-07 15:00:00 NR 35.6173 134.335 main 9 9 __________P___ -1 35.6173 134.335 4 24 33
1915276N17146 1915 39 WP MM NOT_NAMED 1915-10-07 18:00:00 NR 36.5950 135.236 main 86 49 __________P___ -1 36.5950 135.236 4 25 40
1915276N17146 1915 39 WP MM NOT_NAMED 1915-10-07 21:00:00 NR 37.5000 136.300 main 45 41 __________O___ -1 37.5000 136.300 4 25 45
1915276N17146 1915 39 WP MM NOT_NAMED 1915-10-08 00:00:00 NR 38.3934 137.483 main 114 88 __________P___ -1 38.3934 137.483 4 26 49
1915276N17146 1915 39 WP MM NOT_NAMED 1915-10-08 03:00:00 NR 39.2097 138.818 main 88 0 __________P___ -1 39.2097 138.818 4 26 54
1915276N17146 1915 39 WP MM NOT_NAMED 1915-10-08 06:00:00 NR 39.9455 140.246 main 0 0 __________P___ -1 39.9455 140.246 4 26 58
1915276N17146 1915 39 WP MM NOT_NAMED 1915-10-08 09:00:00 NR 40.6000 141.700 main 13 13 __________O___ -1 40.6000 141.700 7 25 61
1915276N17146 1915 39 WP MM NOT_NAMED 1915-10-08 12:00:00 NR 41.1776 143.127 main 78 64 __________P___ -1 41.1776 143.127 7 24 63
1915276N17146 1915 39 WP MM NOT_NAMED 1915-10-08 15:00:00 NR 41.6930 144.526 main 104 104 __________P___ -1 41.6930 144.526 7 23 65
1915276N17146 1915 39 WP MM NOT_NAMED 1915-10-08 18:00:00 NR 42.1621 145.912 main 115 115 __________P___ -1 42.1621 145.912 7 22 66
1915276N17146 1915 39 WP MM NOT_NAMED 1915-10-08 21:00:00 NR 42.6000 147.300 main 158 __________O___ -1 42.6000 147.300 7 22 67

デジタル台風データ・検索

IBTrACS Databaseについて

本データベースは、米国NOAAが公開する1842年以降の世界の熱帯低気圧のベストトラックデータアーカイブInternational Best Track Archive for Climate Stewardship (IBTrACS)を、ウェブで閲覧しやすい形式に変換したものです。

最終更新日:2021-11-26